Bathurst AGRICULT. Res Saint, New South Wales

7:17 PM AEST on May 06, 2015 (GMT +1000)
Wattle Flat, NSW | | Change Station
CLOSE
Current Station
Personal Weather Station
Location: Wattle Flat, NEW SOUTH WALES
Elevation: 2956 ft
Nearby Weather Stations

Elev 2956 ft 33.12 °S, 149.65 °E | Updated 7 seconds ago

Clear
Clear
45.9 °F
Feels Like 42 °F
N
8.1
Wind Variable Wind from WSW
Gusts 12.3 mph

Today
High -- | Low -- °F
--% Chance of Precip.
Yesterday
High -- | Low -- °F
Precip. -- in
6:38 AM 5:17 PM
Waning Gibbous, 95% visible
Pressure 30.06 in
Visibility -9999.0 miles
Clouds
Windchill 42 °F
Dew Point 35 °F
Humidity 65%
Rainfall 0.00 in
Snow Depth Not available.
UV 0.0 out of 12
Pollen Not available.
Air Quality Not available.
Flu Activity Not available.
METAR YMDG 060900Z AUTO 24010KT //// // NCD 11/03 Q1018

More Conditions Fewer Conditions

Pressure 30.06 in
Visibility -9999.0 miles
Clouds
Windchill 42 °F
Dew Point 35 °F
Humidity 65%
Rainfall 0.00 in
Snow Depth Not available.
UV 0.0 out of 12
Pollen Not available.
Air Quality Not available.
Flu Activity Not available.
METAR YMDG 060900Z AUTO 24010KT //// // NCD 11/03 Q1018

More Conditions Fewer Conditions

10-Day Weather Forecast

Almanac

Astronomy

May. 06, 2015 Rise Set
Actual Time
Civil Twilight
Nautical Twilight
Astronomical Twilight
Moon
Length of Visible Light
Length of Day
Tomorrow will be .
, % of the Moon is Illuminated

Today's Extremes

Country Highs Country Lows

Community

WunderPhotos

Upload Photos

1,818,858 photos uploaded!

WunderBlogs® & News

Nearby

Air Quality

  Air Quality AQ Index Pollutant
Not available.

Snow Depth

Station Depth Elevation

Earthquake Activity

City Distance Mag. Time & Date
Minimum magnitude displayed is 2.5.

Coastal Water Temperatures

Place Temperature

Stations

Nearby Weather Stations

Station Location Temp. Windchill Dew Point Humidity Wind Precip. Elev Updated Type